Weather History for Dutch Harbor, AK

Change the Weather History Date:

Wednesday, December 28, 2011

  Actual Average Record
Temperature  
Mean Temperature 24 °F -  
Max Temperature 28 °F 41 °F 55 °F (1992)
Min Temperature 21 °F 31 °F 20 °F (1952)
Degree Days  
Heating Degree Days 40    
Moisture  
Dew Point 19 °F    
Average Humidity 78    
Maximum Humidity 93    
Minimum Humidity 60    
Precipitation  
Precipitation 0.01 in - - ()
Sea Level Pressure  
Sea Level Pressure 29.55 in    
Wind  
Wind Speed 11 mph (WNW)    
Max Wind Speed 32 mph    
Max Gust Speed 37 mph    
Visibility 5 miles    
Events Snow    
Averages and records for this station are not official NWS values.
T = Trace of Precipitation, MM = Missing Value Source: NWS Daily Summary

Daily Weather History Graph

Daily Weather History Graph

Search for Another Location

Airport:

Trip Planner

Search our weather history database for the weather conditions in past years. The results will help you decide how hot, cold, wet, or windy it might be!

Date:

Astronomy

Dec. 28, 2011 Rise Set
Actual Time 10:24 AM AKST 5:50 PM AKST
Civil Twilight 9:41 AM AKST 6:34 PM AKST
Nautical Twilight 8:55 AM AKST 7:20 PM AKST
Astronomical Twilight 8:11 AM AKST 8:03 PM AKST
Moon 12:15 PM AKST (12/28) 11:26 PM AKST (12/28)
Length of Visible Light 8h 53m
Length of Day
7h 26m
Waxing Crescent, 19% of the Moon is Illuminated
Dec 28
Waxing Crescent
Dec 31
First Quarter
Jan 8
Full
Jan 16
Last Quarter
Jan 22
New

Hourly Weather History & Observations

Time (AKST) Temp. Windchill Dew Point Humidity Pressure Visibility Wind Dir Wind Speed Gust Speed Precip Events Conditions
12:35 AM 26.6 °F 19.1 °F 19.4 °F 74% 29.46 in 9.0 mi Variable 6.9 mph - 0.00 in Snow Light Snow
12:48 AM 26.6 °F 15.2 °F 19.4 °F 74% 29.46 in 8.0 mi NNW 13.8 mph 21.9 mph 0.00 in Snow Light Snow
12:56 AM 26.1 °F 12.0 °F 21.0 °F 81% 29.48 in 4.0 mi NNW 20.7 mph 24.2 mph 0.00 in Snow Light Snow
1:02 AM 26.6 °F 13.4 °F 21.2 °F 80% 29.47 in 2.0 mi North 18.4 mph - 0.00 in Snow Light Snow
1:14 AM 26.6 °F 15.2 °F 21.2 °F 80% 29.47 in 4.0 mi North 13.8 mph 19.6 mph 0.00 in Snow Light Snow
1:26 AM 26.6 °F 13.8 °F 21.2 °F 80% 29.47 in 7.0 mi North 17.3 mph 20.7 mph 0.00 in Snow Light Snow
1:56 AM 26.1 °F 20.5 °F 18.0 °F 71% 29.49 in 10.0 mi Variable 4.6 mph 17.3 mph 0.00 in   Overcast
2:14 AM 26.6 °F 12.7 °F 21.2 °F 80% 29.48 in 4.0 mi West 20.7 mph 25.3 mph 0.00 in Snow Light Snow
2:18 AM 26.6 °F 13.4 °F 21.2 °F 80% 29.47 in 2.0 mi WNW 18.4 mph 25.3 mph 0.00 in Snow Light Snow
2:21 AM 26.6 °F 13.1 °F 21.2 °F 80% 29.47 in 1.2 mi West 19.6 mph - 0.00 in Snow Light Snow
2:34 AM 24.8 °F 12.9 °F 21.2 °F 86% 29.48 in 1.5 mi West 13.8 mph - 0.00 in Snow Light Snow
2:56 AM 25.0 °F 15.5 °F 21.0 °F 85% 29.50 in 3.0 mi West 9.2 mph - 0.00 in Snow Light Snow
2:58 AM 24.8 °F 14.6 °F 21.2 °F 86% 29.48 in 5.0 mi West 10.4 mph - 0.00 in Snow Light Snow
3:17 AM 24.8 °F 13.4 °F 19.4 °F 80% 29.48 in 10.0 mi West 12.7 mph - 0.00 in   Overcast
3:56 AM 25.0 °F 15.5 °F 21.0 °F 85% 29.51 in 8.0 mi West 9.2 mph - 0.00 in Snow Light Snow
4:56 AM 25.0 °F 13.6 °F 19.0 °F 78% 29.52 in 7.0 mi West 12.7 mph - 0.00 in Snow Light Snow
5:01 AM 24.8 °F 12.4 °F 19.4 °F 80% 29.50 in 4.0 mi West 15.0 mph - 0.00 in Snow Light Snow
5:06 AM 24.8 °F 14.6 °F 19.4 °F 80% 29.50 in 1.8 mi West 10.4 mph - 0.00 in Snow Light Snow
5:09 AM 24.8 °F 14.6 °F 19.4 °F 80% 29.50 in 1.2 mi West 10.4 mph - 0.00 in Snow Light Snow
5:20 AM 24.8 °F 16.9 °F 19.4 °F 80% 29.50 in 2.0 mi West 6.9 mph - 0.00 in Snow Light Snow
5:30 AM 24.8 °F 19.1 °F 19.4 °F 80% 29.50 in 5.0 mi Variable 4.6 mph - 0.00 in Snow Light Snow
5:52 AM 23.0 °F 14.7 °F 19.4 °F 86% 29.50 in 9.0 mi SSW 6.9 mph - 0.00 in Snow Light Snow
5:56 AM 23.0 °F 13.1 °F 19.9 °F 88% 29.52 in 9.0 mi South 9.2 mph - 0.00 in Snow Light Snow
6:04 AM 23.0 °F 14.7 °F 19.4 °F 86% 29.51 in 2.5 mi WNW 6.9 mph - 0.00 in Snow Light Snow
6:09 AM 24.8 °F 19.1 °F 19.4 °F 80% 29.50 in 1.8 mi Variable 4.6 mph - 0.00 in Snow Light Snow
6:18 AM 24.8 °F - 19.4 °F 80% 29.50 in 5.0 mi Calm Calm - 0.00 in Snow Light Snow
6:39 AM 24.8 °F 16.9 °F 19.4 °F 80% 29.50 in 9.0 mi WSW 6.9 mph - 0.00 in   Scattered Clouds
6:56 AM 24.1 °F 13.7 °F 19.0 °F 81% 29.52 in 9.0 mi NW 10.4 mph - 0.00 in Snow Light Snow
7:31 AM 26.6 °F 15.7 °F 17.6 °F 69% 29.51 in 2.5 mi NW 12.7 mph - 0.00 in Snow Light Snow
7:36 AM 24.8 °F 14.0 °F 17.6 °F 74% 29.51 in 1.8 mi NNW 11.5 mph - 0.00 in Snow Light Snow
7:50 AM 24.8 °F 12.4 °F 19.4 °F 80% 29.52 in 2.5 mi WSW 15.0 mph - 0.00 in Snow Light Snow
7:56 AM 25.0 °F 15.5 °F 19.0 °F 78% 29.54 in 1.8 mi West 9.2 mph - 0.00 in Snow Light Snow
8:02 AM 24.8 °F 13.4 °F 19.4 °F 80% 29.52 in 1.8 mi West 12.7 mph - 0.00 in Snow Light Snow
8:12 AM 24.8 °F 13.4 °F 19.4 °F 80% 29.52 in 1.8 mi West 12.7 mph - 0.00 in Snow Light Snow
8:24 AM 24.8 °F 17.9 °F 19.4 °F 80% 29.52 in 3.0 mi SSW 5.8 mph - 0.00 in Snow Light Snow
8:38 AM 23.0 °F 17.0 °F 19.4 °F 86% 29.52 in 9.0 mi SE 4.6 mph - 0.00 in Snow Light Snow
8:53 AM 21.2 °F - 19.4 °F 93% 29.52 in 7.0 mi Calm Calm - 0.00 in Snow Light Snow
8:56 AM 23.0 °F - 19.0 °F 85% 29.54 in 6.0 mi Calm Calm - 0.00 in Snow Light Snow
9:09 AM 23.0 °F 11.1 °F 19.4 °F 86% 29.53 in 2.5 mi WNW 12.7 mph - 0.00 in Snow Light Snow
9:14 AM 24.8 °F 14.0 °F 19.4 °F 80% 29.52 in 1.5 mi West 11.5 mph - 0.00 in Snow Light Snow
9:22 AM 24.8 °F 16.1 °F 19.4 °F 80% 29.52 in 2.0 mi NW 8.1 mph - 0.00 in Snow Light Snow
9:25 AM 24.8 °F 15.3 °F 19.4 °F 80% 29.52 in 3.0 mi WNW 9.2 mph - 0.00 in Snow Light Snow
9:31 AM 24.8 °F 14.6 °F 19.4 °F 80% 29.52 in 6.0 mi West 10.4 mph - 0.00 in Snow Light Snow
9:34 AM 24.8 °F 15.3 °F 19.4 °F 80% 29.52 in 9.0 mi West 9.2 mph - 0.00 in Snow Light Snow
10:19 AM 24.8 °F 14.0 °F 19.4 °F 80% 29.54 in 2.5 mi North 11.5 mph - 0.00 in Snow Light Snow
10:33 AM 23.0 °F 17.0 °F 17.6 °F 80% 29.54 in 5.0 mi North 4.6 mph - 0.00 in Snow Light Snow
10:38 AM 23.0 °F 18.4 °F 17.6 °F 80% 29.54 in 1.8 mi NNE 3.5 mph - 0.00 in Snow Light Snow
10:43 AM 23.0 °F 18.4 °F 17.6 °F 80% 29.54 in 1.0 mi Variable 3.5 mph - 0.00 in Snow Light Snow
10:46 AM 23.0 °F 18.4 °F 17.6 °F 80% 29.54 in 2.0 mi NNE 3.5 mph - 0.00 in Snow Light Snow
10:50 AM 23.0 °F 18.4 °F 17.6 °F 80% 29.54 in 1.0 mi North 3.5 mph - 0.00 in Snow Light Snow
10:53 AM 23.0 °F 17.0 °F 19.4 °F 86% 29.55 in 9.0 mi NNW 4.6 mph - 0.00 in Snow Light Snow
10:56 AM 23.0 °F 13.1 °F 19.0 °F 85% 29.57 in 9.0 mi NNW 9.2 mph - 0.00 in Snow Light Snow
10:58 AM 23.0 °F 9.2 °F 19.4 °F 86% 29.55 in 1.2 mi NNW 17.3 mph - 0.00 in Snow Light Snow
11:00 AM 23.0 °F 9.6 °F 19.4 °F 86% 29.55 in 1.8 mi NW 16.1 mph 19.6 mph 0.00 in Snow Light Snow
11:02 AM 23.0 °F 10.6 °F 19.4 °F 86% 29.55 in 1.0 mi NW 13.8 mph 19.6 mph 0.00 in Snow Light Snow
11:10 AM 24.8 °F 15.3 °F 19.4 °F 80% 29.55 in 0.8 mi WSW 9.2 mph 19.6 mph 0.00 in Snow Light Snow
11:13 AM 24.8 °F 14.6 °F 19.4 °F 80% 29.55 in 8.0 mi WSW 10.4 mph - 0.00 in Snow Light Snow
11:26 AM 24.8 °F 15.3 °F 19.4 °F 80% 29.55 in 10.0 mi SSW 9.2 mph - 0.00 in Snow Light Snow
11:56 AM 25.0 °F 14.8 °F 19.9 °F 81% 29.57 in 4.0 mi SSW 10.4 mph - 0.00 in Snow Light Snow
11:59 AM 24.8 °F 14.6 °F 19.4 °F 80% 29.55 in 1.8 mi SSW 10.4 mph - 0.00 in Snow Light Snow
12:10 PM 24.8 °F 16.1 °F 19.4 °F 80% 29.55 in 4.0 mi SSW 8.1 mph - 0.00 in Snow Light Snow
12:22 PM 24.8 °F 17.9 °F 19.4 °F 80% 29.56 in 8.0 mi South 5.8 mph - 0.00 in Snow Light Snow
12:56 PM 27.0 °F 18.7 °F 18.0 °F 69% 29.57 in 10.0 mi West 8.1 mph - 0.00 in   Mostly Cloudy
1:36 PM 26.6 °F 9.8 °F 19.4 °F 74% 29.56 in 2.0 mi NW 32.2 mph 36.8 mph 0.00 in Snow Light Snow
1:38 PM 26.6 °F 9.8 °F 19.4 °F 74% 29.57 in 0.5 mi NW 32.2 mph 36.8 mph 0.00 in Snow Snow
1:56 PM 25.0 °F 15.5 °F 19.0 °F 78% 29.58 in 9.0 mi NW 9.2 mph - 0.00 in Snow Light Snow
2:19 PM 26.6 °F 14.7 °F 19.4 °F 74% 29.57 in 2.5 mi WNW 15.0 mph - 0.00 in Snow Light Snow
2:26 PM 26.6 °F 15.7 °F 21.2 °F 80% 29.57 in 1.2 mi NNW 12.7 mph - 0.00 in Snow Light Snow
2:47 PM 26.6 °F 20.0 °F 19.4 °F 74% 29.57 in 2.0 mi Variable 5.8 mph - 0.00 in Snow Light Snow
2:50 PM 26.6 °F 21.2 °F 19.4 °F 74% 29.57 in 5.0 mi NNW 4.6 mph - 0.00 in Snow Light Snow
2:56 PM 26.1 °F 21.9 °F 19.9 °F 78% 29.58 in 10.0 mi Variable 3.5 mph - 0.00 in Snow Light Snow
3:14 PM 28.4 °F 15.8 °F 19.4 °F 69% 29.56 in 9.0 mi WNW 18.4 mph 23.0 mph 0.00 in Snow Light Snow
3:56 PM 27.0 °F 15.2 °F 17.1 °F 66% 29.59 in 9.0 mi NW 15.0 mph 19.6 mph 0.00 in Snow Light Snow
4:29 PM 26.6 °F 13.8 °F 17.6 °F 69% 29.58 in 3.0 mi NW 17.3 mph - 0.00 in Snow Light Snow
4:49 PM 26.6 °F 16.2 °F 17.6 °F 69% 29.58 in 9.0 mi WNW 11.5 mph - 0.00 in Snow Light Snow
4:56 PM 26.1 °F 16.8 °F 18.0 °F 71% 29.60 in 9.0 mi NW 9.2 mph - 0.00 in Snow Light Snow
5:04 PM 26.6 °F 14.7 °F 19.4 °F 74% 29.58 in 3.0 mi NW 15.0 mph - 0.00 in Snow Light Snow
5:38 PM 26.6 °F 13.8 °F 19.4 °F 74% 29.60 in 6.0 mi NW 17.3 mph 26.5 mph 0.00 in Snow Light Snow
5:54 PM 24.8 °F 14.0 °F 19.4 °F 80% 29.60 in 3.0 mi WNW 11.5 mph - 0.00 in Snow Light Snow
5:56 PM 25.0 °F 14.2 °F 19.0 °F 78% 29.62 in 3.0 mi WNW 11.5 mph - 0.00 in Snow Light Snow
6:09 PM 24.8 °F 11.9 °F 19.4 °F 80% 29.60 in 8.0 mi NNW 16.1 mph 20.7 mph 0.01 in Snow Light Snow
6:27 PM 26.6 °F 14.3 °F 17.6 °F 69% 29.60 in 8.0 mi NNW 16.1 mph - 0.01 in Snow Light Snow
6:56 PM 26.1 °F 14.5 °F 18.0 °F 71% 29.63 in 8.0 mi NW 13.8 mph 20.7 mph 0.01 in Snow Light Snow
7:56 PM 25.0 °F 12.6 °F 17.1 °F 72% 29.66 in 8.0 mi WNW 15.0 mph - 0.00 in Snow Light Snow
8:56 PM 25.0 °F 12.2 °F 17.1 °F 72% 29.68 in 7.0 mi NNW 16.1 mph 23.0 mph 0.00 in Snow Light Snow
9:56 PM 25.0 °F 14.8 °F 16.0 °F 69% 29.70 in 9.0 mi NNW 10.4 mph 24.2 mph 0.00 in   Overcast
10:56 PM 26.1 °F 13.1 °F 14.0 °F 60% 29.72 in 9.0 mi NW 17.3 mph 23.0 mph 0.00 in Snow Light Snow
11:47 PM 24.8 °F 11.5 °F 17.6 °F 74% 29.73 in 2.5 mi NW 17.3 mph 26.5 mph 0.00 in Snow Light Snow
11:50 PM 24.8 °F 11.9 °F 17.6 °F 74% 29.73 in 1.5 mi NW 16.1 mph 26.5 mph 0.00 in Snow Light Snow
11:56 PM 24.1 °F 12.5 °F 17.1 °F 75% 29.75 in 2.5 mi NW 12.7 mph 21.9 mph 0.00 in Snow Light Snow
11:58 PM 24.8 °F 13.4 °F 17.6 °F 74% 29.73 in 3.0 mi NW 12.7 mph - 0.00 in Snow Light Snow